sensor_id;sensor_type;location;lat;lon;timestamp;P1;durP1;ratioP1;P2;durP2;ratioP2
16326;SDS011;34812;49.846;9.610;2023-06-01T00:00:56;4.13;;;2.10;;
16326;SDS011;34812;49.846;9.610;2023-06-01T00:01:58;3.30;;;2.77;;
16326;SDS011;34812;49.846;9.610;2023-06-01T00:02:59;4.00;;;2.50;;
16326;SDS011;34812;49.846;9.610;2023-06-01T00:04:01;3.40;;;2.70;;
16326;SDS011;34812;49.846;9.610;2023-06-01T00:05:02;3.57;;;2.10;;
16326;SDS011;34812;49.846;9.610;2023-06-01T00:06:04;4.93;;;2.70;;
16326;SDS011;34812;49.846;9.610;2023-06-01T00:07:06;5.70;;;2.67;;
16326;SDS011;34812;49.846;9.610;2023-06-01T00:08:08;3.33;;;2.50;;
16326;SDS011;34812;49.846;9.610;2023-06-01T00:09:09;4.33;;;2.67;;
16326;SDS011;34812;49.846;9.610;2023-06-01T00:10:11;6.47;;;2.63;;
16326;SDS011;34812;49.846;9.610;2023-06-01T00:11:13;2.87;;;2.27;;
16326;SDS011;34812;49.846;9.610;2023-06-01T00:12:15;3.03;;;2.60;;
16326;SDS011;34812;49.846;9.610;2023-06-01T00:13:16;4.80;;;2.60;;
16326;SDS011;34812;49.846;9.610;2023-06-01T00:14:18;4.63;;;2.10;;
16326;SDS011;34812;49.846;9.610;2023-06-01T00:15:19;2.83;;;2.50;;
16326;SDS011;34812;49.846;9.610;2023-06-01T00:16:21;5.23;;;2.67;;
16326;SDS011;34812;49.846;9.610;2023-06-01T00:17:22;5.47;;;2.17;;
16326;SDS011;34812;49.846;9.610;2023-06-01T00:18:24;4.70;;;2.77;;
16326;SDS011;34812;49.846;9.610;2023-06-01T00:19:27;6.33;;;2.37;;
16326;SDS011;34812;49.846;9.610;2023-06-01T00:20:29;3.00;;;2.50;;
16326;SDS011;34812;49.846;9.610;2023-06-01T00:21:32;4.77;;;2.73;;
16326;SDS011;34812;49.846;9.610;2023-06-01T00:22:35;3.03;;;2.53;;
16326;SDS011;34812;49.846;9.610;2023-06-01T00:23:38;3.73;;;2.53;;
16326;SDS011;34812;49.846;9.610;2023-06-01T00:24:41;4.13;;;2.47;;
16326;SDS011;34812;49.846;9.610;2023-06-01T00:25:42;3.20;;;2.60;;
16326;SDS011;34812;49.846;9.610;2023-06-01T00:26:45;4.43;;;2.73;;
16326;SDS011;34812;49.846;9.610;2023-06-01T00:27:46;3.33;;;2.50;;
16326;SDS011;34812;49.846;9.610;2023-06-01T00:28:47;5.93;;;2.70;;
16326;SDS011;34812;49.846;9.610;2023-06-01T00:29:48;3.80;;;2.60;;
16326;SDS011;34812;49.846;9.610;2023-06-01T00:30:51;5.10;;;2.80;;
16326;SDS011;34812;49.846;9.610;2023-06-01T00:31:53;7.10;;;2.93;;
16326;SDS011;34812;49.846;9.610;2023-06-01T00:32:55;2.80;;;2.27;;
16326;SDS011;34812;49.846;9.610;2023-06-01T00:33:55;3.70;;;2.57;;
16326;SDS011;34812;49.846;9.610;2023-06-01T00:34:57;5.53;;;2.77;;
16326;SDS011;34812;49.846;9.610;2023-06-01T00:35:58;6.33;;;2.83;;
16326;SDS011;34812;49.846;9.610;2023-06-01T00:37:00;4.60;;;2.80;;
16326;SDS011;34812;49.846;9.610;2023-06-01T00:38:01;3.53;;;2.20;;
16326;SDS011;34812;49.846;9.610;2023-06-01T00:39:03;4.53;;;2.70;;
16326;SDS011;34812;49.846;9.610;2023-06-01T00:40:07;5.63;;;2.70;;
16326;SDS011;34812;49.846;9.610;2023-06-01T00:41:10;3.50;;;2.73;;
16326;SDS011;34812;49.846;9.610;2023-06-01T00:42:12;5.73;;;2.67;;
16326;SDS011;34812;49.846;9.610;2023-06-01T00:43:14;3.83;;;2.70;;
16326;SDS011;34812;49.846;9.610;2023-06-01T00:44:15;6.23;;;3.10;;
16326;SDS011;34812;49.846;9.610;2023-06-01T00:45:17;4.33;;;2.67;;
16326;SDS011;34812;49.846;9.610;2023-06-01T00:46:18;3.53;;;2.80;;
16326;SDS011;34812;49.846;9.610;2023-06-01T00:47:20;4.30;;;3.23;;
16326;SDS011;34812;49.846;9.610;2023-06-01T00:48:21;3.03;;;2.57;;
16326;SDS011;34812;49.846;9.610;2023-06-01T00:49:24;6.10;;;2.77;;
16326;SDS011;34812;49.846;9.610;2023-06-01T00:50:25;3.73;;;2.80;;
16326;SDS011;34812;49.846;9.610;2023-06-01T00:51:27;3.53;;;2.83;;
16326;SDS011;34812;49.846;9.610;2023-06-01T00:52:28;3.90;;;2.63;;
16326;SDS011;34812;49.846;9.610;2023-06-01T00:53:31;3.57;;;2.60;;
16326;SDS011;34812;49.846;9.610;2023-06-01T00:54:32;6.57;;;3.13;;
16326;SDS011;34812;49.846;9.610;2023-06-01T00:55:35;4.40;;;2.87;;
16326;SDS011;34812;49.846;9.610;2023-06-01T00:56:36;3.97;;;2.67;;
16326;SDS011;34812;49.846;9.610;2023-06-01T00:57:40;4.57;;;2.93;;
16326;SDS011;34812;49.846;9.610;2023-06-01T00:58:43;6.03;;;3.13;;
16326;SDS011;34812;49.846;9.610;2023-06-01T00:59:45;4.17;;;3.07;;
16326;SDS011;34812;49.846;9.610;2023-06-01T01:00:46;5.00;;;3.07;;
16326;SDS011;34812;49.846;9.610;2023-06-01T01:01:48;3.77;;;2.67;;
16326;SDS011;34812;49.846;9.610;2023-06-01T01:02:49;3.20;;;2.80;;
16326;SDS011;34812;49.846;9.610;2023-06-01T01:03:52;3.80;;;2.70;;
16326;SDS011;34812;49.846;9.610;2023-06-01T01:04:59;5.90;;;3.27;;
16326;SDS011;34812;49.846;9.610;2023-06-01T01:06:04;3.40;;;2.83;;
16326;SDS011;34812;49.846;9.610;2023-06-01T01:07:13;2.60;;;2.40;;
16326;SDS011;34812;49.846;9.610;2023-06-01T01:08:22;5.03;;;2.60;;
16326;SDS011;34812;49.846;9.610;2023-06-01T01:09:28;2.70;;;2.50;;
16326;SDS011;34812;49.846;9.610;2023-06-01T01:10:37;5.40;;;2.70;;
16326;SDS011;34812;49.846;9.610;2023-06-01T01:11:41;4.70;;;2.47;;
16326;SDS011;34812;49.846;9.610;2023-06-01T01:12:57;4.37;;;2.50;;
16326;SDS011;34812;49.846;9.610;2023-06-01T01:14:07;4.00;;;2.80;;
16326;SDS011;34812;49.846;9.610;2023-06-01T01:15:21;4.83;;;2.60;;
16326;SDS011;34812;49.846;9.610;2023-06-01T01:16:27;5.87;;;2.93;;
16326;SDS011;34812;49.846;9.610;2023-06-01T01:17:33;5.90;;;3.30;;
16326;SDS011;34812;49.846;9.610;2023-06-01T01:18:39;4.37;;;2.80;;
16326;SDS011;34812;49.846;9.610;2023-06-01T01:19:52;3.17;;;2.70;;
16326;SDS011;34812;49.846;9.610;2023-06-01T01:20:57;4.63;;;2.93;;
16326;SDS011;34812;49.846;9.610;2023-06-01T01:22:06;4.50;;;2.93;;
16326;SDS011;34812;49.846;9.610;2023-06-01T01:23:20;4.53;;;2.80;;
16326;SDS011;34812;49.846;9.610;2023-06-01T01:24:50;4.40;;;2.93;;
16326;SDS011;34812;49.846;9.610;2023-06-01T01:26:08;3.97;;;2.60;;
16326;SDS011;34812;49.846;9.610;2023-06-01T01:27:23;4.00;;;3.07;;
16326;SDS011;34812;49.846;9.610;2023-06-01T01:28:34;4.47;;;2.70;;
16326;SDS011;34812;49.846;9.610;2023-06-01T01:29:40;2.87;;;2.63;;
16326;SDS011;34812;49.846;9.610;2023-06-01T01:30:42;4.93;;;2.87;;
16326;SDS011;34812;49.846;9.610;2023-06-01T01:31:47;5.07;;;3.33;;
16326;SDS011;34812;49.846;9.610;2023-06-01T01:32:50;3.83;;;2.70;;
16326;SDS011;34812;49.846;9.610;2023-06-01T01:33:53;3.37;;;3.00;;
16326;SDS011;34812;49.846;9.610;2023-06-01T01:34:56;3.23;;;2.93;;
16326;SDS011;34812;49.846;9.610;2023-06-01T01:35:59;4.30;;;3.10;;
16326;SDS011;34812;49.846;9.610;2023-06-01T01:37:02;3.33;;;2.87;;
16326;SDS011;34812;49.846;9.610;2023-06-01T01:38:03;3.03;;;2.73;;
16326;SDS011;34812;49.846;9.610;2023-06-01T01:39:05;3.57;;;3.07;;
16326;SDS011;34812;49.846;9.610;2023-06-01T01:40:07;2.57;;;2.37;;
16326;SDS011;34812;49.846;9.610;2023-06-01T01:41:10;5.30;;;2.87;;
16326;SDS011;34812;49.846;9.610;2023-06-01T01:42:11;3.27;;;2.70;;
16326;SDS011;34812;49.846;9.610;2023-06-01T01:43:12;4.63;;;2.90;;
16326;SDS011;34812;49.846;9.610;2023-06-01T01:44:15;3.23;;;2.93;;
16326;SDS011;34812;49.846;9.610;2023-06-01T01:45:17;3.27;;;2.97;;
16326;SDS011;34812;49.846;9.610;2023-06-01T01:46:21;5.57;;;3.00;;
16326;SDS011;34812;49.846;9.610;2023-06-01T01:47:27;3.23;;;2.77;;
16326;SDS011;34812;49.846;9.610;2023-06-01T01:48:37;3.20;;;2.67;;
16326;SDS011;34812;49.846;9.610;2023-06-01T01:49:44;4.87;;;2.70;;
16326;SDS011;34812;49.846;9.610;2023-06-01T01:50:50;6.20;;;2.73;;
16326;SDS011;34812;49.846;9.610;2023-06-01T01:51:54;4.57;;;3.87;;
16326;SDS011;34812;49.846;9.610;2023-06-01T01:53:01;5.47;;;3.00;;
16326;SDS011;34812;49.846;9.610;2023-06-01T01:54:05;4.80;;;3.50;;
16326;SDS011;34812;49.846;9.610;2023-06-01T01:55:08;5.73;;;3.27;;
16326;SDS011;34812;49.846;9.610;2023-06-01T01:56:09;3.33;;;2.90;;
16326;SDS011;34812;49.846;9.610;2023-06-01T01:57:15;5.03;;;3.17;;
16326;SDS011;34812;49.846;9.610;2023-06-01T01:58:18;7.27;;;2.67;;
16326;SDS011;34812;49.846;9.610;2023-06-01T01:59:21;2.97;;;2.57;;
16326;SDS011;34812;49.846;9.610;2023-06-01T02:00:23;4.80;;;2.90;;
16326;SDS011;34812;49.846;9.610;2023-06-01T02:01:25;6.33;;;2.97;;
16326;SDS011;34812;49.846;9.610;2023-06-01T02:02:27;4.03;;;2.90;;
16326;SDS011;34812;49.846;9.610;2023-06-01T02:03:29;4.17;;;3.03;;
16326;SDS011;34812;49.846;9.610;2023-06-01T02:04:30;4.97;;;3.33;;
16326;SDS011;34812;49.846;9.610;2023-06-01T02:05:33;3.60;;;3.30;;
16326;SDS011;34812;49.846;9.610;2023-06-01T02:06:34;5.13;;;3.17;;
16326;SDS011;34812;49.846;9.610;2023-06-01T02:07:36;3.63;;;3.33;;
16326;SDS011;34812;49.846;9.610;2023-06-01T02:08:38;4.53;;;3.13;;
16326;SDS011;34812;49.846;9.610;2023-06-01T02:09:41;5.97;;;3.83;;
16326;SDS011;34812;49.846;9.610;2023-06-01T02:10:43;5.23;;;3.10;;
16326;SDS011;34812;49.846;9.610;2023-06-01T02:11:46;3.70;;;3.30;;
16326;SDS011;34812;49.846;9.610;2023-06-01T02:12:47;6.07;;;2.87;;
16326;SDS011;34812;49.846;9.610;2023-06-01T02:13:49;6.07;;;3.60;;
16326;SDS011;34812;49.846;9.610;2023-06-01T02:14:51;6.07;;;3.20;;
16326;SDS011;34812;49.846;9.610;2023-06-01T02:15:53;4.23;;;3.00;;
16326;SDS011;34812;49.846;9.610;2023-06-01T02:16:54;5.00;;;3.00;;
16326;SDS011;34812;49.846;9.610;2023-06-01T02:17:56;3.87;;;3.00;;
16326;SDS011;34812;49.846;9.610;2023-06-01T02:18:56;4.20;;;3.40;;
16326;SDS011;34812;49.846;9.610;2023-06-01T02:19:59;4.23;;;3.20;;
16326;SDS011;34812;49.846;9.610;2023-06-01T02:21:00;6.63;;;3.07;;
16326;SDS011;34812;49.846;9.610;2023-06-01T02:22:03;3.97;;;3.00;;
16326;SDS011;34812;49.846;9.610;2023-06-01T02:23:04;5.07;;;3.30;;
16326;SDS011;34812;49.846;9.610;2023-06-01T02:24:06;5.03;;;3.43;;
16326;SDS011;34812;49.846;9.610;2023-06-01T02:25:07;7.87;;;3.33;;
16326;SDS011;34812;49.846;9.610;2023-06-01T02:26:10;4.47;;;3.03;;
16326;SDS011;34812;49.846;9.610;2023-06-01T02:27:11;3.40;;;3.10;;
16326;SDS011;34812;49.846;9.610;2023-06-01T02:28:13;4.40;;;2.93;;
16326;SDS011;34812;49.846;9.610;2023-06-01T02:29:13;3.63;;;2.87;;
16326;SDS011;34812;49.846;9.610;2023-06-01T02:30:17;3.50;;;3.17;;
16326;SDS011;34812;49.846;9.610;2023-06-01T02:31:18;5.30;;;2.90;;
16326;SDS011;34812;49.846;9.610;2023-06-01T02:32:20;6.07;;;2.90;;
16326;SDS011;34812;49.846;9.610;2023-06-01T02:33:21;3.23;;;2.80;;
16326;SDS011;34812;49.846;9.610;2023-06-01T02:34:25;4.03;;;2.83;;
16326;SDS011;34812;49.846;9.610;2023-06-01T02:35:26;3.57;;;3.10;;
16326;SDS011;34812;49.846;9.610;2023-06-01T02:36:27;4.80;;;3.13;;
16326;SDS011;34812;49.846;9.610;2023-06-01T02:37:29;3.67;;;3.17;;
16326;SDS011;34812;49.846;9.610;2023-06-01T02:38:31;6.37;;;3.30;;
16326;SDS011;34812;49.846;9.610;2023-06-01T02:39:32;4.33;;;3.10;;
16326;SDS011;34812;49.846;9.610;2023-06-01T02:40:36;3.23;;;2.93;;
16326;SDS011;34812;49.846;9.610;2023-06-01T02:41:37;3.73;;;3.10;;
16326;SDS011;34812;49.846;9.610;2023-06-01T02:42:38;3.80;;;3.20;;
16326;SDS011;34812;49.846;9.610;2023-06-01T02:43:39;5.97;;;3.10;;
16326;SDS011;34812;49.846;9.610;2023-06-01T02:44:41;4.43;;;3.07;;
16326;SDS011;34812;49.846;9.610;2023-06-01T02:45:43;4.00;;;3.40;;
16326;SDS011;34812;49.846;9.610;2023-06-01T02:46:45;3.77;;;3.23;;
16326;SDS011;34812;49.846;9.610;2023-06-01T02:47:47;3.63;;;3.23;;
16326;SDS011;34812;49.846;9.610;2023-06-01T02:48:48;5.30;;;3.60;;
16326;SDS011;34812;49.846;9.610;2023-06-01T02:49:51;4.17;;;3.73;;
16326;SDS011;34812;49.846;9.610;2023-06-01T02:50:53;4.00;;;3.40;;
16326;SDS011;34812;49.846;9.610;2023-06-01T02:51:54;7.07;;;4.07;;
16326;SDS011;34812;49.846;9.610;2023-06-01T02:52:58;5.20;;;3.40;;
16326;SDS011;34812;49.846;9.610;2023-06-01T02:53:59;5.13;;;3.40;;
16326;SDS011;34812;49.846;9.610;2023-06-01T02:55:01;4.63;;;3.40;;
16326;SDS011;34812;49.846;9.610;2023-06-01T02:56:19;3.50;;;3.20;;
16326;SDS011;34812;49.846;9.610;2023-06-01T02:57:31;5.53;;;3.20;;
16326;SDS011;34812;49.846;9.610;2023-06-01T02:58:37;4.87;;;3.03;;
16326;SDS011;34812;49.846;9.610;2023-06-01T02:59:51;3.77;;;2.93;;
16326;SDS011;34812;49.846;9.610;2023-06-01T03:00:53;5.87;;;3.60;;
16326;SDS011;34812;49.846;9.610;2023-06-01T03:01:55;6.70;;;3.50;;
16326;SDS011;34812;49.846;9.610;2023-06-01T03:02:56;4.63;;;2.97;;
16326;SDS011;34812;49.846;9.610;2023-06-01T03:03:58;7.10;;;3.27;;
16326;SDS011;34812;49.846;9.610;2023-06-01T03:04:59;4.40;;;3.63;;
16326;SDS011;34812;49.846;9.610;2023-06-01T03:06:01;6.40;;;3.30;;
16326;SDS011;34812;49.846;9.610;2023-06-01T03:07:38;3.87;;;3.43;;
16326;SDS011;34812;49.846;9.610;2023-06-01T03:08:47;5.93;;;3.47;;
16326;SDS011;34812;49.846;9.610;2023-06-01T03:10:07;5.20;;;3.13;;
16326;SDS011;34812;49.846;9.610;2023-06-01T03:11:30;6.40;;;3.93;;
16326;SDS011;34812;49.846;9.610;2023-06-01T03:12:31;4.10;;;3.47;;
16326;SDS011;34812;49.846;9.610;2023-06-01T03:13:32;4.07;;;3.13;;
16326;SDS011;34812;49.846;9.610;2023-06-01T03:14:33;3.60;;;3.30;;
16326;SDS011;34812;49.846;9.610;2023-06-01T03:15:35;5.17;;;3.40;;
16326;SDS011;34812;49.846;9.610;2023-06-01T03:16:39;3.77;;;3.17;;
16326;SDS011;34812;49.846;9.610;2023-06-01T03:17:55;4.03;;;3.17;;
16326;SDS011;34812;49.846;9.610;2023-06-01T03:18:56;4.40;;;3.33;;
16326;SDS011;34812;49.846;9.610;2023-06-01T03:19:58;5.23;;;3.30;;
16326;SDS011;34812;49.846;9.610;2023-06-01T03:20:59;3.73;;;3.43;;
16326;SDS011;34812;49.846;9.610;2023-06-01T03:22:02;5.83;;;3.93;;
16326;SDS011;34812;49.846;9.610;2023-06-01T03:23:03;5.47;;;3.67;;
16326;SDS011;34812;49.846;9.610;2023-06-01T03:24:05;3.83;;;3.43;;
16326;SDS011;34812;49.846;9.610;2023-06-01T03:25:07;3.63;;;3.23;;
16326;SDS011;34812;49.846;9.610;2023-06-01T03:26:09;4.60;;;3.30;;
16326;SDS011;34812;49.846;9.610;2023-06-01T03:27:10;3.70;;;3.30;;
16326;SDS011;34812;49.846;9.610;2023-06-01T03:28:13;5.97;;;3.43;;
16326;SDS011;34812;49.846;9.610;2023-06-01T03:29:15;3.37;;;3.03;;
16326;SDS011;34812;49.846;9.610;2023-06-01T03:30:17;4.03;;;3.63;;
16326;SDS011;34812;49.846;9.610;2023-06-01T03:31:19;3.43;;;2.87;;
16326;SDS011;34812;49.846;9.610;2023-06-01T03:32:22;3.90;;;3.40;;
16326;SDS011;34812;49.846;9.610;2023-06-01T03:33:25;4.93;;;3.27;;
16326;SDS011;34812;49.846;9.610;2023-06-01T03:34:27;3.83;;;3.43;;
16326;SDS011;34812;49.846;9.610;2023-06-01T03:35:28;4.10;;;3.33;;
16326;SDS011;34812;49.846;9.610;2023-06-01T03:36:30;4.33;;;3.57;;
16326;SDS011;34812;49.846;9.610;2023-06-01T03:37:33;4.80;;;3.30;;
16326;SDS011;34812;49.846;9.610;2023-06-01T03:38:34;4.90;;;3.73;;
16326;SDS011;34812;49.846;9.610;2023-06-01T03:39:36;5.70;;;3.40;;
16326;SDS011;34812;49.846;9.610;2023-06-01T03:40:41;4.00;;;3.70;;
16326;SDS011;34812;49.846;9.610;2023-06-01T03:41:43;4.10;;;3.70;;
16326;SDS011;34812;49.846;9.610;2023-06-01T03:42:45;3.80;;;3.40;;
16326;SDS011;34812;49.846;9.610;2023-06-01T03:43:48;4.40;;;3.30;;
16326;SDS011;34812;49.846;9.610;2023-06-01T03:44:50;5.20;;;3.50;;
16326;SDS011;34812;49.846;9.610;2023-06-01T03:45:52;4.77;;;3.40;;
16326;SDS011;34812;49.846;9.610;2023-06-01T03:46:53;3.87;;;3.57;;
16326;SDS011;34812;49.846;9.610;2023-06-01T03:47:56;3.93;;;3.63;;
16326;SDS011;34812;49.846;9.610;2023-06-01T03:48:58;9.37;;;3.53;;
16326;SDS011;34812;49.846;9.610;2023-06-01T03:50:00;3.50;;;3.20;;
16326;SDS011;34812;49.846;9.610;2023-06-01T03:51:02;4.43;;;3.33;;
16326;SDS011;34812;49.846;9.610;2023-06-01T03:52:04;5.73;;;3.73;;
16326;SDS011;34812;49.846;9.610;2023-06-01T03:53:07;5.87;;;3.60;;
16326;SDS011;34812;49.846;9.610;2023-06-01T03:54:09;4.57;;;3.63;;
16326;SDS011;34812;49.846;9.610;2023-06-01T03:55:10;10.33;;;3.83;;
16326;SDS011;34812;49.846;9.610;2023-06-01T03:56:31;3.87;;;3.47;;
16326;SDS011;34812;49.846;9.610;2023-06-01T03:57:35;7.43;;;3.47;;
16326;SDS011;34812;49.846;9.610;2023-06-01T03:58:37;6.67;;;3.73;;
16326;SDS011;34812;49.846;9.610;2023-06-01T03:59:38;4.63;;;3.27;;
16326;SDS011;34812;49.846;9.610;2023-06-01T04:00:40;5.07;;;3.50;;
16326;SDS011;34812;49.846;9.610;2023-06-01T04:01:42;3.93;;;3.27;;
16326;SDS011;34812;49.846;9.610;2023-06-01T04:02:45;5.60;;;3.73;;
16326;SDS011;34812;49.846;9.610;2023-06-01T04:03:50;3.80;;;3.30;;
16326;SDS011;34812;49.846;9.610;2023-06-01T04:04:52;4.27;;;3.60;;
16326;SDS011;34812;49.846;9.610;2023-06-01T04:05:54;3.90;;;3.50;;
16326;SDS011;34812;49.846;9.610;2023-06-01T04:06:59;5.27;;;3.70;;
16326;SDS011;34812;49.846;9.610;2023-06-01T04:08:02;6.93;;;4.07;;
16326;SDS011;34812;49.846;9.610;2023-06-01T04:09:04;8.50;;;4.10;;
16326;SDS011;34812;49.846;9.610;2023-06-01T04:10:08;4.23;;;3.83;;
16326;SDS011;34812;49.846;9.610;2023-06-01T04:11:11;7.90;;;3.80;;
16326;SDS011;34812;49.846;9.610;2023-06-01T04:12:12;3.87;;;3.00;;
16326;SDS011;34812;49.846;9.610;2023-06-01T04:13:15;4.83;;;3.83;;
16326;SDS011;34812;49.846;9.610;2023-06-01T04:14:16;4.63;;;3.90;;
16326;SDS011;34812;49.846;9.610;2023-06-01T04:15:18;7.13;;;3.60;;
16326;SDS011;34812;49.846;9.610;2023-06-01T04:16:20;5.13;;;3.60;;
16326;SDS011;34812;49.846;9.610;2023-06-01T04:17:22;3.47;;;3.10;;
16326;SDS011;34812;49.846;9.610;2023-06-01T04:18:23;5.00;;;4.00;;
16326;SDS011;34812;49.846;9.610;2023-06-01T04:19:37;4.93;;;3.90;;
16326;SDS011;34812;49.846;9.610;2023-06-01T04:20:41;5.70;;;3.60;;
16326;SDS011;34812;49.846;9.610;2023-06-01T04:21:43;3.60;;;3.30;;
16326;SDS011;34812;49.846;9.610;2023-06-01T04:22:46;5.70;;;3.70;;
16326;SDS011;34812;49.846;9.610;2023-06-01T04:23:48;6.27;;;3.70;;
16326;SDS011;34812;49.846;9.610;2023-06-01T04:24:49;7.43;;;3.70;;
16326;SDS011;34812;49.846;9.610;2023-06-01T04:25:51;5.87;;;3.37;;
16326;SDS011;34812;49.846;9.610;2023-06-01T04:26:53;5.80;;;3.57;;
16326;SDS011;34812;49.846;9.610;2023-06-01T04:27:56;6.40;;;3.30;;
16326;SDS011;34812;49.846;9.610;2023-06-01T04:29:00;5.23;;;3.40;;
16326;SDS011;34812;49.846;9.610;2023-06-01T04:30:04;4.33;;;3.47;;
16326;SDS011;34812;49.846;9.610;2023-06-01T04:31:07;4.03;;;3.63;;
16326;SDS011;34812;49.846;9.610;2023-06-01T04:32:13;4.03;;;3.60;;
16326;SDS011;34812;49.846;9.610;2023-06-01T04:33:21;4.37;;;3.97;;
16326;SDS011;34812;49.846;9.610;2023-06-01T04:34:25;4.03;;;3.63;;
16326;SDS011;34812;49.846;9.610;2023-06-01T04:35:28;4.97;;;3.67;;
16326;SDS011;34812;49.846;9.610;2023-06-01T04:36:32;4.10;;;3.20;;
16326;SDS011;34812;49.846;9.610;2023-06-01T04:37:38;3.93;;;3.63;;
16326;SDS011;34812;49.846;9.610;2023-06-01T04:38:41;6.00;;;3.43;;
16326;SDS011;34812;49.846;9.610;2023-06-01T04:39:42;8.20;;;3.70;;
16326;SDS011;34812;49.846;9.610;2023-06-01T04:40:49;5.77;;;3.57;;
16326;SDS011;34812;49.846;9.610;2023-06-01T04:41:53;4.93;;;3.60;;
16326;SDS011;34812;49.846;9.610;2023-06-01T04:42:55;6.27;;;3.47;;
16326;SDS011;34812;49.846;9.610;2023-06-01T04:43:58;6.60;;;4.00;;
16326;SDS011;34812;49.846;9.610;2023-06-01T04:45:00;4.73;;;3.87;;
16326;SDS011;34812;49.846;9.610;2023-06-01T04:46:05;4.90;;;3.43;;
16326;SDS011;34812;49.846;9.610;2023-06-01T04:47:07;5.80;;;3.73;;
16326;SDS011;34812;49.846;9.610;2023-06-01T04:48:09;4.13;;;3.70;;
16326;SDS011;34812;49.846;9.610;2023-06-01T04:49:20;4.20;;;3.80;;
16326;SDS011;34812;49.846;9.610;2023-06-01T04:50:22;4.67;;;3.40;;
16326;SDS011;34812;49.846;9.610;2023-06-01T04:51:25;6.10;;;3.97;;
16326;SDS011;34812;49.846;9.610;2023-06-01T04:52:26;6.23;;;3.30;;
16326;SDS011;34812;49.846;9.610;2023-06-01T04:53:28;5.63;;;3.67;;
16326;SDS011;34812;49.846;9.610;2023-06-01T04:54:30;7.00;;;3.83;;
16326;SDS011;34812;49.846;9.610;2023-06-01T04:55:32;4.80;;;3.87;;
16326;SDS011;34812;49.846;9.610;2023-06-01T04:56:33;6.17;;;3.83;;
16326;SDS011;34812;49.846;9.610;2023-06-01T04:57:35;6.10;;;3.57;;
16326;SDS011;34812;49.846;9.610;2023-06-01T04:58:39;6.57;;;4.07;;
16326;SDS011;34812;49.846;9.610;2023-06-01T04:59:41;5.83;;;3.60;;
16326;SDS011;34812;49.846;9.610;2023-06-01T05:00:41;5.40;;;3.97;;
16326;SDS011;34812;49.846;9.610;2023-06-01T05:01:43;4.43;;;3.50;;
16326;SDS011;34812;49.846;9.610;2023-06-01T05:02:45;4.03;;;3.43;;
16326;SDS011;34812;49.846;9.610;2023-06-01T05:03:48;6.23;;;3.60;;
16326;SDS011;34812;49.846;9.610;2023-06-01T05:04:49;4.77;;;3.67;;
16326;SDS011;34812;49.846;9.610;2023-06-01T05:05:52;6.37;;;3.83;;
16326;SDS011;34812;49.846;9.610;2023-06-01T05:06:54;4.30;;;3.80;;
16326;SDS011;34812;49.846;9.610;2023-06-01T05:07:57;6.73;;;3.50;;
16326;SDS011;34812;49.846;9.610;2023-06-01T05:08:57;3.93;;;3.40;;
16326;SDS011;34812;49.846;9.610;2023-06-01T05:09:59;4.13;;;3.40;;
16326;SDS011;34812;49.846;9.610;2023-06-01T05:11:12;5.70;;;3.50;;
16326;SDS011;34812;49.846;9.610;2023-06-01T05:12:14;4.73;;;3.50;;
16326;SDS011;34812;49.846;9.610;2023-06-01T05:13:15;4.17;;;3.60;;
16326;SDS011;34812;49.846;9.610;2023-06-01T05:14:17;6.53;;;4.00;;
16326;SDS011;34812;49.846;9.610;2023-06-01T05:15:18;5.63;;;3.60;;
16326;SDS011;34812;49.846;9.610;2023-06-01T05:16:20;6.10;;;3.67;;
16326;SDS011;34812;49.846;9.610;2023-06-01T05:17:22;4.80;;;3.60;;
16326;SDS011;34812;49.846;9.610;2023-06-01T05:18:24;5.20;;;3.67;;
16326;SDS011;34812;49.846;9.610;2023-06-01T05:19:24;6.30;;;4.07;;
16326;SDS011;34812;49.846;9.610;2023-06-01T05:20:28;9.33;;;3.73;;
16326;SDS011;34812;49.846;9.610;2023-06-01T05:21:31;8.47;;;3.43;;
16326;SDS011;34812;49.846;9.610;2023-06-01T05:22:34;9.80;;;3.87;;
16326;SDS011;34812;49.846;9.610;2023-06-01T05:23:35;6.20;;;4.07;;
16326;SDS011;34812;49.846;9.610;2023-06-01T05:24:37;11.20;;;3.80;;
16326;SDS011;34812;49.846;9.610;2023-06-01T05:25:38;8.27;;;3.83;;
16326;SDS011;34812;49.846;9.610;2023-06-01T05:26:40;7.87;;;3.53;;
16326;SDS011;34812;49.846;9.610;2023-06-01T05:27:41;11.07;;;3.73;;
16326;SDS011;34812;49.846;9.610;2023-06-01T05:28:43;12.27;;;4.10;;
16326;SDS011;34812;49.846;9.610;2023-06-01T05:29:45;6.97;;;3.80;;
16326;SDS011;34812;49.846;9.610;2023-06-01T05:30:47;5.87;;;3.63;;
16326;SDS011;34812;49.846;9.610;2023-06-01T05:31:49;13.07;;;3.93;;
16326;SDS011;34812;49.846;9.610;2023-06-01T05:32:51;9.60;;;4.10;;
16326;SDS011;34812;49.846;9.610;2023-06-01T05:33:54;9.47;;;3.53;;
16326;SDS011;34812;49.846;9.610;2023-06-01T05:34:56;11.27;;;4.20;;
16326;SDS011;34812;49.846;9.610;2023-06-01T05:36:00;3.67;;;3.37;;
16326;SDS011;34812;49.846;9.610;2023-06-01T05:37:01;8.50;;;3.90;;
16326;SDS011;34812;49.846;9.610;2023-06-01T05:38:05;9.20;;;3.90;;
16326;SDS011;34812;49.846;9.610;2023-06-01T05:39:06;7.07;;;3.97;;
16326;SDS011;34812;49.846;9.610;2023-06-01T05:40:08;6.93;;;3.47;;
16326;SDS011;34812;49.846;9.610;2023-06-01T05:41:11;9.37;;;3.63;;
16326;SDS011;34812;49.846;9.610;2023-06-01T05:42:13;7.73;;;3.80;;
16326;SDS011;34812;49.846;9.610;2023-06-01T05:43:14;4.40;;;3.47;;
16326;SDS011;34812;49.846;9.610;2023-06-01T05:44:16;6.70;;;3.20;;
16326;SDS011;34812;49.846;9.610;2023-06-01T05:45:17;4.80;;;3.40;;
16326;SDS011;34812;49.846;9.610;2023-06-01T05:46:19;9.87;;;4.10;;
16326;SDS011;34812;49.846;9.610;2023-06-01T05:47:21;7.70;;;3.70;;
16326;SDS011;34812;49.846;9.610;2023-06-01T05:48:22;6.40;;;3.37;;
16326;SDS011;34812;49.846;9.610;2023-06-01T05:49:27;9.87;;;3.87;;
16326;SDS011;34812;49.846;9.610;2023-06-01T05:50:31;9.70;;;3.67;;
16326;SDS011;34812;49.846;9.610;2023-06-01T05:51:32;6.77;;;3.70;;
16326;SDS011;34812;49.846;9.610;2023-06-01T05:52:37;6.30;;;3.60;;
16326;SDS011;34812;49.846;9.610;2023-06-01T05:53:41;4.87;;;3.37;;
16326;SDS011;34812;49.846;9.610;2023-06-01T05:54:43;6.17;;;3.60;;
16326;SDS011;34812;49.846;9.610;2023-06-01T05:55:44;4.93;;;3.70;;
16326;SDS011;34812;49.846;9.610;2023-06-01T05:56:46;6.77;;;3.83;;
16326;SDS011;34812;49.846;9.610;2023-06-01T05:57:48;6.43;;;3.20;;
16326;SDS011;34812;49.846;9.610;2023-06-01T05:58:50;6.63;;;3.33;;
16326;SDS011;34812;49.846;9.610;2023-06-01T05:59:53;7.33;;;3.63;;
16326;SDS011;34812;49.846;9.610;2023-06-01T06:00:55;6.53;;;3.70;;
16326;SDS011;34812;49.846;9.610;2023-06-01T06:01:56;8.73;;;3.60;;
16326;SDS011;34812;49.846;9.610;2023-06-01T06:02:58;11.73;;;3.70;;
16326;SDS011;34812;49.846;9.610;2023-06-01T06:03:59;8.63;;;3.70;;
16326;SDS011;34812;49.846;9.610;2023-06-01T06:05:01;7.70;;;3.60;;
16326;SDS011;34812;49.846;9.610;2023-06-01T06:06:03;7.73;;;3.83;;
16326;SDS011;34812;49.846;9.610;2023-06-01T06:07:06;8.77;;;3.23;;
16326;SDS011;34812;49.846;9.610;2023-06-01T06:08:06;11.07;;;3.77;;
16326;SDS011;34812;49.846;9.610;2023-06-01T06:09:11;6.47;;;3.57;;
16326;SDS011;34812;49.846;9.610;2023-06-01T06:10:14;5.63;;;3.60;;
16326;SDS011;34812;49.846;9.610;2023-06-01T06:11:15;5.67;;;3.67;;
16326;SDS011;34812;49.846;9.610;2023-06-01T06:12:17;5.75;;;3.33;;
16326;SDS011;34812;49.846;9.610;2023-06-01T06:13:18;4.20;;;3.20;;
16326;SDS011;34812;49.846;9.610;2023-06-01T06:14:20;5.93;;;2.90;;
16326;SDS011;34812;49.846;9.610;2023-06-01T06:15:21;5.77;;;3.30;;
16326;SDS011;34812;49.846;9.610;2023-06-01T06:16:23;3.83;;;3.25;;
16326;SDS011;34812;49.846;9.610;2023-06-01T06:17:23;6.03;;;3.17;;
16326;SDS011;34812;49.846;9.610;2023-06-01T06:18:25;4.00;;;3.20;;
16326;SDS011;34812;49.846;9.610;2023-06-01T06:19:26;3.47;;;3.00;;
16326;SDS011;34812;49.846;9.610;2023-06-01T06:20:28;5.40;;;3.60;;
16326;SDS011;34812;49.846;9.610;2023-06-01T06:21:29;6.45;;;3.20;;